createdAt,value
2022-12-29T00:01:43.057Z,101312.47
2022-12-29T00:04:15.235Z,101313.34
2022-12-29T00:06:43.062Z,101328.28
2022-12-29T00:09:12.485Z,101318.59
2022-12-29T00:11:39.475Z,101316.88
2022-12-29T00:14:26.277Z,101308.09
2022-12-29T00:16:53.645Z,101301.09
2022-12-29T00:19:39.611Z,101308.09
2022-12-29T00:22:25.319Z,101305.47
2022-12-29T00:25:01.284Z,101313.38
2022-12-29T00:27:49.977Z,101308.06
2022-12-29T00:30:40.957Z,101316.88
2022-12-29T00:33:33.557Z,101313.34
2022-12-29T00:36:00.407Z,101315.09
2022-12-29T00:38:46.092Z,101305.47
2022-12-29T00:41:31.546Z,101289.69
2022-12-29T00:44:07.453Z,101284.41
2022-12-29T00:46:35.293Z,101292.34
2022-12-29T00:49:22.268Z,101284.44
2022-12-29T00:51:49.601Z,101283.53
2022-12-29T00:54:17.039Z,101306.38
2022-12-29T00:56:50.179Z,101301.97
2022-12-29T00:59:17.688Z,101301.97
2022-12-29T01:01:45.928Z,101307.25
2022-12-29T01:04:13.156Z,101309.88
2022-12-29T01:06:41.181Z,101311.63
2022-12-29T01:09:27.294Z,101310.78
2022-12-29T01:11:54.546Z,101309.88
2022-12-29T01:14:22.056Z,101318.66
2022-12-29T01:16:48.859Z,101309.88
2022-12-29T01:19:16.875Z,101311.66
2022-12-29T01:21:45.581Z,101310.78
2022-12-29T01:24:12.581Z,101315.16
2022-12-29T01:26:39.548Z,101315.16
2022-12-29T01:29:06.456Z,101322.16
2022-12-29T01:31:34.219Z,101323.03
2022-12-29T01:34:01.071Z,101309.91
2022-12-29T01:36:28.067Z,101315.16
2022-12-29T01:38:54.995Z,101302.88
2022-12-29T01:41:22.338Z,101307.28
2022-12-29T01:43:54.628Z,101309.88
2022-12-29T01:46:33.129Z,101309.00
2022-12-29T01:49:08.668Z,101302.00
2022-12-29T01:51:43.296Z,101300.25
2022-12-29T01:54:19.431Z,101296.75
2022-12-29T01:56:47.145Z,101299.38
2022-12-29T01:59:17.059Z,101302.00
2022-12-29T02:01:45.898Z,101303.75
2022-12-29T02:04:14.121Z,101304.59
2022-12-29T02:06:56.000Z,101303.75
2022-12-29T02:09:24.459Z,101295.00
2022-12-29T02:11:51.537Z,101288.88
2022-12-29T02:14:19.115Z,101286.22
2022-12-29T02:17:07.956Z,101279.22
2022-12-29T02:20:08.261Z,101279.22
2022-12-29T02:22:53.974Z,101276.56
2022-12-29T02:25:59.407Z,101275.72
2022-12-29T02:29:04.146Z,101273.94
2022-12-29T02:31:47.392Z,101277.47
2022-12-29T02:34:25.261Z,101268.69
2022-12-29T02:37:13.963Z,101263.41
2022-12-29T02:39:53.609Z,101260.81
2022-12-29T02:42:32.206Z,101264.31
2022-12-29T02:45:33.228Z,101264.31
2022-12-29T02:48:10.271Z,101261.69
2022-12-29T02:51:00.119Z,101265.19
2022-12-29T02:53:46.177Z,101266.94
2022-12-29T02:56:13.047Z,101258.16
2022-12-29T02:58:39.920Z,101253.78
2022-12-29T03:01:32.965Z,101259.91
2022-12-29T03:04:14.989Z,101265.16
2022-12-29T03:06:53.107Z,101264.28
2022-12-29T03:09:48.056Z,101258.16
2022-12-29T03:13:04.889Z,101252.94
2022-12-29T03:16:05.926Z,101252.91
2022-12-29T03:18:40.742Z,101258.19
2022-12-29T03:21:15.748Z,101256.44
2022-12-29T03:23:44.077Z,101261.69
2022-12-29T03:26:13.997Z,101246.78
2022-12-29T03:28:46.207Z,101245.91
2022-12-29T03:31:14.348Z,101244.13
2022-12-29T03:33:42.911Z,101240.66
2022-12-29T03:36:13.582Z,101242.41
2022-12-29T03:38:47.906Z,101253.78
2022-12-29T03:41:18.733Z,101259.03
2022-12-29T03:43:46.405Z,101243.25
2022-12-29T03:46:13.236Z,101247.66
2022-12-29T03:48:40.149Z,101253.78
2022-12-29T03:51:07.666Z,101249.38
2022-12-29T03:53:34.540Z,101253.78
2022-12-29T03:56:01.490Z,101249.38
2022-12-29T03:58:28.419Z,101234.50
2022-12-29T04:00:55.370Z,101232.72
2022-12-29T04:03:22.249Z,101234.50
2022-12-29T04:05:49.179Z,101231.88
2022-12-29T04:08:16.063Z,101231.88
2022-12-29T04:10:43.071Z,101228.38
2022-12-29T04:13:09.991Z,101223.13
2022-12-29T04:15:37.530Z,101224.84
2022-12-29T04:18:04.432Z,101218.72
2022-12-29T04:20:50.118Z,101221.34
2022-12-29T04:23:17.028Z,101228.38
2022-12-29T04:25:48.692Z,101238.00
2022-12-29T04:28:16.359Z,101237.13
2022-12-29T04:30:46.379Z,101235.41
2022-12-29T04:33:13.581Z,101234.50
2022-12-29T04:35:41.142Z,101231.88
2022-12-29T04:38:08.083Z,101233.63
2022-12-29T04:40:35.038Z,101242.38
2022-12-29T04:43:01.935Z,101244.13
2022-12-29T04:45:28.807Z,101237.16
2022-12-29T04:47:56.204Z,101238.91
2022-12-29T04:50:23.102Z,101238.88
2022-12-29T04:52:49.983Z,101229.25
2022-12-29T04:55:16.939Z,101232.75
2022-12-29T04:57:45.691Z,101233.66
2022-12-29T05:00:13.527Z,101235.41
2022-12-29T05:02:40.925Z,101242.41
2022-12-29T05:05:08.215Z,101233.66
2022-12-29T05:07:35.204Z,101225.78
2022-12-29T05:10:02.090Z,101230.13
2022-12-29T05:12:32.956Z,101238.91
2022-12-29T05:14:59.994Z,101241.53
2022-12-29T05:17:27.302Z,101238.03
2022-12-29T05:19:54.161Z,101240.66
2022-12-29T05:22:21.410Z,101249.41
2022-12-29T05:24:48.237Z,101247.66
2022-12-29T05:27:15.321Z,101251.16
2022-12-29T05:29:42.197Z,101241.53
2022-12-29T05:32:09.093Z,101236.25
2022-12-29T05:34:35.939Z,101225.75
2022-12-29T05:37:03.620Z,101232.78
2022-12-29T05:39:30.585Z,101234.50
2022-12-29T05:41:57.488Z,101235.38
2022-12-29T05:44:24.498Z,101243.28
2022-12-29T05:46:53.764Z,101237.13
2022-12-29T05:49:20.920Z,101236.25
2022-12-29T05:51:47.810Z,101222.25
2022-12-29T05:54:14.729Z,101225.75
2022-12-29T05:56:41.981Z,101226.63
2022-12-29T05:59:09.878Z,101217.84
2022-12-29T06:01:36.796Z,101222.25
2022-12-29T06:04:04.015Z,101220.50
2022-12-29T06:06:31.084Z,101223.09
2022-12-29T06:08:58.104Z,101224.88
2022-12-29T06:11:24.963Z,101224.00
2022-12-29T06:13:51.857Z,101217.84
2022-12-29T06:16:18.951Z,101215.22
2022-12-29T06:18:46.412Z,101218.75
2022-12-29T06:21:13.824Z,101224.00
2022-12-29T06:23:41.164Z,101219.59
2022-12-29T06:26:08.051Z,101221.38
2022-12-29T06:28:35.226Z,101224.88
2022-12-29T06:31:03.978Z,101221.38
2022-12-29T06:33:31.295Z,101217.84
2022-12-29T06:35:58.578Z,101222.25
2022-12-29T06:38:25.694Z,101223.13
2022-12-29T06:40:52.670Z,101222.25
2022-12-29T06:43:19.599Z,101221.38
2022-12-29T06:45:47.497Z,101226.63
2022-12-29T06:48:14.564Z,101223.09
2022-12-29T06:50:41.601Z,101223.13
2022-12-29T06:53:08.499Z,101235.41
2022-12-29T06:55:35.345Z,101245.91
2022-12-29T06:58:02.583Z,101240.66
2022-12-29T07:00:29.467Z,101245.03
2022-12-29T07:02:59.007Z,101241.53
2022-12-29T07:05:28.696Z,101242.41
2022-12-29T07:07:56.293Z,101240.63
2022-12-29T07:10:23.855Z,101241.53
2022-12-29T07:12:51.086Z,101245.91
2022-12-29T07:15:18.151Z,101242.41
2022-12-29T07:17:45.169Z,101242.41
2022-12-29T07:20:12.167Z,101248.53
2022-12-29T07:22:39.718Z,101245.03
2022-12-29T07:25:06.884Z,101247.63
2022-12-29T07:27:35.021Z,101255.53
2022-12-29T07:30:01.978Z,101267.81
2022-12-29T07:32:29.660Z,101258.16
2022-12-29T07:34:59.531Z,101253.72
2022-12-29T07:37:26.517Z,101265.97
2022-12-29T07:39:53.497Z,101256.28
2022-12-29T07:42:20.459Z,101264.16
2022-12-29T07:44:50.765Z,101261.53
2022-12-29T07:47:18.294Z,101267.66
2022-12-29T07:49:45.439Z,101250.13
2022-12-29T07:52:12.950Z,101265.88
2022-12-29T07:54:40.115Z,101269.38
2022-12-29T07:57:07.171Z,101266.75
2022-12-29T07:59:34.167Z,101251.84
2022-12-29T08:02:01.130Z,101248.31
2022-12-29T08:04:28.200Z,101247.41
2022-12-29T08:06:55.100Z,101245.62
2022-12-29T08:09:24.268Z,101246.47
2022-12-29T08:11:58.996Z,101249.97
2022-12-29T08:14:25.839Z,101253.44
2022-12-29T08:16:52.801Z,101253.38
2022-12-29T08:19:19.736Z,101256.81
2022-12-29T08:21:46.637Z,101245.19
2022-12-29T08:24:13.585Z,101250.19
2022-12-29T08:26:40.562Z,101249.72
2022-12-29T08:29:07.491Z,101230.84
2022-12-29T08:31:34.561Z,101227.00
2022-12-29T08:34:02.520Z,101226.97
2022-12-29T08:36:29.354Z,101230.66
2022-12-29T08:38:58.258Z,101233.97
2022-12-29T08:41:25.227Z,101233.00
2022-12-29T08:43:52.084Z,101227.47
2022-12-29T08:46:19.027Z,101225.56
2022-12-29T08:48:46.023Z,101224.75
2022-12-29T08:51:14.318Z,101230.78
2022-12-29T08:53:41.254Z,101235.75
2022-12-29T08:56:09.735Z,101232.03
2022-12-29T08:58:36.882Z,101226.56
2022-12-29T09:01:04.574Z,101209.25
2022-12-29T09:04:04.214Z,101209.13
2022-12-29T09:06:19.569Z,101215.12
2022-12-29T09:08:46.581Z,101209.00
2022-12-29T09:11:18.239Z,101201.72
2022-12-29T09:13:45.494Z,101192.66
2022-12-29T09:16:12.611Z,101182.06
2022-12-29T09:18:39.723Z,101185.34
2022-12-29T09:21:07.778Z,101182.41
2022-12-29T09:23:35.727Z,101180.00
2022-12-29T09:26:03.520Z,101173.41
2022-12-29T09:28:30.923Z,101168.06
2022-12-29T09:30:58.795Z,101163.31
2022-12-29T09:33:25.959Z,101172.00
2022-12-29T09:35:56.321Z,101172.34
2022-12-29T09:38:24.653Z,101170.78
2022-12-29T09:40:57.493Z,101159.97
2022-12-29T09:43:42.586Z,101155.59
2022-12-29T09:46:28.572Z,101150.34
2022-12-29T09:49:20.723Z,101143.16
2022-12-29T09:51:52.130Z,101134.72
2022-12-29T09:54:37.555Z,101132.13
2022-12-29T09:57:04.407Z,101125.91
2022-12-29T09:59:41.096Z,101111.37
2022-12-29T10:02:25.448Z,101106.88
2022-12-29T10:04:52.370Z,101107.66
2022-12-29T10:07:54.642Z,101100.31
2022-12-29T10:10:35.590Z,101104.75
2022-12-29T10:13:08.597Z,101103.09
2022-12-29T10:16:07.853Z,101097.53
2022-12-29T10:18:50.357Z,101095.00
2022-12-29T10:21:46.017Z,101100.38
2022-12-29T10:24:13.920Z,101086.06
2022-12-29T10:26:45.607Z,101091.69
2022-12-29T10:29:27.606Z,101089.62
2022-12-29T10:32:03.355Z,101080.66
2022-12-29T10:34:38.994Z,101077.69
2022-12-29T10:37:31.944Z,101085.72
2022-12-29T10:40:02.186Z,101083.97
2022-12-29T10:42:38.378Z,101075.50
2022-12-29T10:45:06.500Z,101066.34
2022-12-29T10:47:40.512Z,101058.06
2022-12-29T10:50:08.547Z,101045.12
2022-12-29T10:52:36.092Z,101061.38
2022-12-29T10:55:13.983Z,101051.31
2022-12-29T10:57:45.171Z,101047.53
2022-12-29T11:00:18.104Z,101038.56
2022-12-29T11:03:17.397Z,101031.62
2022-12-29T11:06:13.295Z,101045.75
2022-12-29T11:08:46.410Z,101043.41
2022-12-29T11:11:13.500Z,101046.72
2022-12-29T11:13:52.076Z,101036.66
2022-12-29T11:16:31.700Z,101037.03
2022-12-29T11:18:59.763Z,101036.87
2022-12-29T11:21:41.406Z,101049.38
2022-12-29T11:24:21.808Z,101052.34
2022-12-29T11:26:51.874Z,101052.03
2022-12-29T11:29:25.329Z,101037.34
2022-12-29T11:31:59.118Z,101042.34
2022-12-29T11:34:33.922Z,101041.66
2022-12-29T11:37:07.369Z,101053.94
2022-12-29T11:39:34.314Z,101064.50
2022-12-29T11:42:03.634Z,101060.22
2022-12-29T11:44:37.740Z,101061.94
2022-12-29T11:47:05.231Z,101051.56
2022-12-29T11:49:32.275Z,101054.06
2022-12-29T11:51:59.323Z,101053.50
2022-12-29T11:54:30.763Z,101048.09
2022-12-29T11:56:59.413Z,101040.53
2022-12-29T11:59:35.337Z,101054.59
2022-12-29T12:02:25.905Z,101042.41
2022-12-29T12:05:02.041Z,101035.34
2022-12-29T12:08:06.867Z,101030.19
2022-12-29T12:10:48.071Z,101019.50
2022-12-29T12:13:26.724Z,101005.47
2022-12-29T12:15:58.304Z,101009.19
2022-12-29T12:18:48.275Z,101011.06
2022-12-29T12:21:32.062Z,101007.56
2022-12-29T12:24:10.021Z,101014.34
2022-12-29T12:26:43.827Z,100997.50
2022-12-29T12:29:33.611Z,101001.03
2022-12-29T12:32:13.171Z,101010.66
2022-12-29T12:34:43.984Z,100998.34
2022-12-29T12:37:25.617Z,101000.25
2022-12-29T12:40:16.991Z,100996.53
2022-12-29T12:42:59.077Z,100994.06
2022-12-29T12:45:53.724Z,100995.31
2022-12-29T12:48:44.021Z,100987.84
2022-12-29T12:51:26.943Z,100991.00
2022-12-29T12:54:14.591Z,100987.22
2022-12-29T12:57:09.241Z,100990.66
2022-12-29T12:59:36.100Z,100992.44
2022-12-29T13:02:31.575Z,101010.19
2022-12-29T13:05:27.067Z,101007.47
2022-12-29T13:08:15.989Z,100987.03
2022-12-29T13:10:53.568Z,100989.87
2022-12-29T13:14:03.906Z,101001.22
2022-12-29T13:16:59.708Z,101009.53
2022-12-29T13:20:03.060Z,101010.41
2022-12-29T13:22:57.983Z,101007.69
2022-12-29T13:25:30.902Z,100994.66
2022-12-29T13:28:11.714Z,101002.53
2022-12-29T13:30:44.761Z,101011.41
2022-12-29T13:33:21.656Z,101012.34
2022-12-29T13:35:53.509Z,101016.72
2022-12-29T13:38:39.380Z,101015.81
2022-12-29T13:41:15.534Z,101020.41
2022-12-29T13:43:44.727Z,101030.09
2022-12-29T13:46:32.614Z,101040.63
2022-12-29T13:49:30.713Z,101045.91
2022-12-29T13:52:00.344Z,101045.03
2022-12-29T13:54:46.877Z,101049.44
2022-12-29T13:57:25.792Z,101048.59
2022-12-29T13:59:57.353Z,101048.69
2022-12-29T14:02:45.807Z,101039.09
2022-12-29T14:05:21.662Z,101047.28
2022-12-29T14:07:50.252Z,101052.03
2022-12-29T14:10:47.743Z,101044.00
2022-12-29T14:13:19.874Z,101026.59
2022-12-29T14:16:00.898Z,101038.13
2022-12-29T14:18:29.921Z,101028.47
2022-12-29T14:21:23.668Z,101033.03
2022-12-29T14:23:52.447Z,101045.53
2022-12-29T14:26:36.460Z,101054.50
2022-12-29T14:29:24.925Z,101036.09
2022-12-29T14:31:52.632Z,101047.75
2022-12-29T14:34:22.293Z,101048.75
2022-12-29T14:37:02.797Z,101045.44
2022-12-29T14:39:37.376Z,101066.69
2022-12-29T14:42:10.309Z,101069.44
2022-12-29T14:44:55.166Z,101068.69
2022-12-29T14:47:31.285Z,101077.50
2022-12-29T14:50:09.004Z,101080.25
2022-12-29T14:53:01.979Z,101084.00
2022-12-29T14:55:44.647Z,101083.91
2022-12-29T14:58:26.881Z,101077.84
2022-12-29T15:00:54.033Z,101085.91
2022-12-29T15:03:20.828Z,101084.19
2022-12-29T15:05:53.729Z,101093.06
2022-12-29T15:08:28.210Z,101100.16
2022-12-29T15:10:59.552Z,101095.84
2022-12-29T15:13:36.205Z,101095.91
2022-12-29T15:16:03.274Z,101103.00
2022-12-29T15:18:32.431Z,101088.97
2022-12-29T15:21:01.950Z,101084.59
2022-12-29T15:23:30.713Z,101089.91
2022-12-29T15:26:03.831Z,101092.59
2022-12-29T15:28:43.227Z,101092.72
2022-12-29T15:31:30.633Z,101099.88
2022-12-29T15:34:11.699Z,101099.06
2022-12-29T15:36:40.579Z,101096.53
2022-12-29T15:39:29.671Z,101102.78
2022-12-29T15:42:41.101Z,101098.44
2022-12-29T15:45:12.321Z,101091.41
2022-12-29T15:47:39.974Z,101085.31
2022-12-29T15:50:15.590Z,101092.38
2022-12-29T15:52:42.612Z,101087.16
2022-12-29T15:55:26.143Z,101091.50
2022-12-29T15:57:57.860Z,101086.25
2022-12-29T16:00:38.208Z,101083.59
2022-12-29T16:03:06.766Z,101094.19
2022-12-29T16:05:39.403Z,101092.44
2022-12-29T16:08:38.061Z,101065.44
2022-12-29T16:11:25.263Z,101096.91
2022-12-29T16:13:53.824Z,101092.62
2022-12-29T16:16:32.456Z,101094.31
2022-12-29T16:19:00.296Z,101078.50
2022-12-29T16:21:34.308Z,101081.16
2022-12-29T16:24:06.907Z,101093.47
2022-12-29T16:26:34.022Z,101091.75
2022-12-29T16:29:02.465Z,101094.41
2022-12-29T16:31:37.960Z,101095.31
2022-12-29T16:34:33.142Z,101099.69
2022-12-29T16:37:06.643Z,101087.44
2022-12-29T16:39:40.349Z,101095.34
2022-12-29T16:42:39.321Z,101099.81
2022-12-29T16:45:21.576Z,101092.78
2022-12-29T16:48:10.184Z,101111.25
2022-12-29T16:50:39.175Z,101102.50
2022-12-29T16:53:06.626Z,101109.59
2022-12-29T16:55:33.580Z,101106.94
2022-12-29T16:58:00.829Z,101105.19
2022-12-29T17:00:32.944Z,101110.53
2022-12-29T17:03:00.917Z,101111.34
2022-12-29T17:05:27.823Z,101114.00
2022-12-29T17:07:55.872Z,101111.41
2022-12-29T17:10:43.110Z,101114.03
2022-12-29T17:13:09.966Z,101128.13
2022-12-29T17:15:36.996Z,101110.56
2022-12-29T17:18:06.405Z,101107.06
2022-12-29T17:20:36.951Z,101113.25
2022-12-29T17:23:17.418Z,101106.31
2022-12-29T17:25:46.670Z,101114.16
2022-12-29T17:28:23.225Z,101114.16
2022-12-29T17:30:50.271Z,101128.16
2022-12-29T17:33:18.634Z,101118.47
2022-12-29T17:35:48.341Z,101118.47
2022-12-29T17:38:24.425Z,101119.38
2022-12-29T17:40:51.628Z,101113.22
2022-12-29T17:43:18.778Z,101101.87
2022-12-29T17:45:49.681Z,101101.91
2022-12-29T17:48:18.145Z,101101.81
2022-12-29T17:50:46.713Z,101097.41
2022-12-29T17:53:20.620Z,101092.16
2022-12-29T17:55:47.687Z,101094.81
2022-12-29T17:58:19.580Z,101100.06
2022-12-29T18:00:48.382Z,101096.56
2022-12-29T18:03:35.498Z,101094.78
2022-12-29T18:06:05.925Z,101088.63
2022-12-29T18:08:34.614Z,101084.28
2022-12-29T18:11:02.404Z,101077.31
2022-12-29T18:13:41.914Z,101076.56
2022-12-29T18:16:13.023Z,101070.44
2022-12-29T18:18:40.068Z,101061.63
2022-12-29T18:21:07.726Z,101069.47
2022-12-29T18:23:37.658Z,101071.22
2022-12-29T18:26:05.191Z,101069.44
2022-12-29T18:28:32.203Z,101061.53
2022-12-29T18:31:01.145Z,101072.13
2022-12-29T18:33:28.987Z,101068.59
2022-12-29T18:35:58.760Z,101069.44
2022-12-29T18:38:25.940Z,101073.87
2022-12-29T18:40:53.493Z,101079.09
2022-12-29T18:43:20.674Z,101076.47
2022-12-29T18:45:47.606Z,101075.66
2022-12-29T18:48:15.616Z,101073.91
2022-12-29T18:50:42.889Z,101073.87
2022-12-29T18:53:16.219Z,101072.16
2022-12-29T18:55:43.057Z,101076.56
2022-12-29T18:58:10.195Z,101067.78
2022-12-29T19:00:37.254Z,101065.16
2022-12-29T19:03:04.326Z,101066.91
2022-12-29T19:05:36.996Z,101064.31
2022-12-29T19:08:04.525Z,101059.91
2022-12-29T19:10:32.000Z,101059.06
2022-12-29T19:12:58.914Z,101059.94
2022-12-29T19:15:35.363Z,101056.47
2022-12-29T19:20:52.929Z,101052.91
2022-12-29T19:23:23.306Z,101060.81
2022-12-29T19:25:51.407Z,101051.19
2022-12-29T19:28:23.884Z,101056.47
2022-12-29T19:30:52.713Z,101061.75
2022-12-29T19:33:21.415Z,101063.50
2022-12-29T19:35:49.110Z,101061.75
2022-12-29T19:38:16.006Z,101058.25
2022-12-29T19:40:45.635Z,101051.22
2022-12-29T19:43:13.900Z,101048.62
2022-12-29T19:45:42.442Z,101045.12
2022-12-29T19:48:14.855Z,101038.97
2022-12-29T19:50:43.640Z,101047.78
2022-12-29T19:53:11.738Z,101044.28
2022-12-29T19:55:45.255Z,101044.28
2022-12-29T19:58:12.685Z,101046.06
2022-12-29T20:00:43.590Z,101044.34
2022-12-29T20:03:10.940Z,101044.34
2022-12-29T20:05:39.477Z,101037.34
2022-12-29T20:08:06.654Z,101040.84
2022-12-29T20:10:33.800Z,101045.22
2022-12-29T20:13:00.632Z,101026.84
2022-12-29T20:15:27.662Z,101036.47
2022-12-29T20:20:42.185Z,101037.34
2022-12-29T20:23:09.295Z,101038.22
2022-12-29T20:25:46.394Z,101020.72
2022-12-29T20:28:15.534Z,101035.62
2022-12-29T20:30:43.292Z,101025.97
2022-12-29T20:33:10.232Z,101030.37
2022-12-29T20:35:37.554Z,101031.22
2022-12-29T20:38:05.492Z,101024.25
2022-12-29T20:40:32.587Z,101024.25
2022-12-29T20:42:59.853Z,101033.87
2022-12-29T20:45:28.354Z,101032.16
2022-12-29T20:47:55.693Z,101034.75
2022-12-29T20:50:22.618Z,101033.03
2022-12-29T20:52:50.008Z,101036.53
2022-12-29T20:55:16.925Z,101031.25
2022-12-29T20:58:21.945Z,101039.16
2022-12-29T21:00:31.695Z,101035.66
2022-12-29T21:02:59.934Z,101034.78
2022-12-29T21:05:27.977Z,101040.91
2022-12-29T21:07:55.819Z,101033.91
2022-12-29T21:10:22.953Z,101039.16
2022-12-29T21:12:50.320Z,101043.53
2022-12-29T21:15:17.690Z,101033.03
2022-12-29T21:17:44.960Z,101043.53
2022-12-29T21:20:30.223Z,101051.41
2022-12-29T21:23:01.447Z,101036.50
2022-12-29T21:25:38.778Z,101038.25
2022-12-29T21:28:07.011Z,101034.75
2022-12-29T21:30:35.208Z,101037.37
2022-12-29T21:33:02.225Z,101046.16
2022-12-29T21:35:29.037Z,101034.75
2022-12-29T21:37:56.262Z,101037.37
2022-12-29T21:40:23.108Z,101032.12
2022-12-29T21:42:50.008Z,101037.37
2022-12-29T21:45:26.069Z,101033.91
2022-12-29T21:48:12.754Z,101013.75
2022-12-29T21:51:03.237Z,101029.50
2022-12-29T21:53:38.278Z,101032.16
2022-12-29T21:56:10.816Z,101029.53
2022-12-29T21:58:58.657Z,101019.00
2022-12-29T22:01:45.333Z,101025.09
2022-12-29T22:04:33.103Z,101023.34
2022-12-29T22:07:18.516Z,101031.22
2022-12-29T22:10:04.014Z,101037.34
2022-12-29T22:12:50.769Z,101019.78
2022-12-29T22:15:17.633Z,101030.31
2022-12-29T22:17:50.057Z,101033.78
2022-12-29T22:20:21.608Z,101030.28
2022-12-29T22:22:48.593Z,101026.81
2022-12-29T22:25:15.501Z,101027.72
2022-12-29T22:27:42.978Z,101019.81
2022-12-29T22:30:10.633Z,101024.19
2022-12-29T22:32:37.552Z,101017.97
2022-12-29T22:35:08.027Z,101028.47
2022-12-29T22:37:36.833Z,101023.19
2022-12-29T22:40:05.377Z,101024.00
2022-12-29T22:42:32.508Z,101020.47
2022-12-29T22:44:59.352Z,101027.47
2022-12-29T22:47:26.150Z,101026.56
2022-12-29T22:49:53.066Z,101016.87
2022-12-29T22:52:20.075Z,101015.12
2022-12-29T22:54:46.892Z,101020.37
2022-12-29T22:57:13.793Z,101020.34
2022-12-29T22:59:40.684Z,101011.56
2022-12-29T23:02:07.734Z,101024.69
2022-12-29T23:05:02.538Z,101016.75
2022-12-29T23:07:21.783Z,101005.31
2022-12-29T23:09:48.808Z,100998.31
2022-12-29T23:12:15.683Z,100995.66
2022-12-29T23:14:42.596Z,100990.38
2022-12-29T23:17:09.650Z,100985.13
2022-12-29T23:19:36.785Z,100980.72
2022-12-29T23:22:09.093Z,100983.31
2022-12-29T23:24:38.667Z,100971.03
2022-12-29T23:27:05.466Z,100975.38
2022-12-29T23:29:32.761Z,100966.59
2022-12-29T23:31:59.664Z,100954.28
2022-12-29T23:34:26.593Z,100952.53
2022-12-29T23:36:53.476Z,100958.63
2022-12-29T23:39:23.406Z,100965.66
2022-12-29T23:41:51.582Z,100967.41
2022-12-29T23:44:18.429Z,100966.50
2022-12-29T23:46:45.334Z,100968.22
2022-12-29T23:49:12.564Z,100964.72
2022-12-29T23:51:39.780Z,100957.66
2022-12-29T23:54:06.778Z,100965.53
2022-12-29T23:56:33.832Z,100973.41
2022-12-29T23:59:03.781Z,100978.66
